sensor_id;sensor_type;location;lat;lon;timestamp;pressure;altitude;pressure_sealevel;temperature;humidity
47524;BME280;33253;42.144;25.884;2023-06-14T00:00:11;100035.22;;;21.75;93.60
47524;BME280;33253;42.144;25.884;2023-06-14T00:02:39;100078.81;;;21.88;94.18
47524;BME280;33253;42.144;25.884;2023-06-14T00:05:05;100070.09;;;21.83;94.73
47524;BME280;33253;42.144;25.884;2023-06-14T00:07:39;100062.41;;;21.71;94.87
47524;BME280;33253;42.144;25.884;2023-06-14T00:10:09;100073.75;;;21.76;95.61
47524;BME280;33253;42.144;25.884;2023-06-14T00:12:35;100065.97;;;21.68;95.54
47524;BME280;33253;42.144;25.884;2023-06-14T00:15:01;100062.50;;;21.66;95.38
47524;BME280;33253;42.144;25.884;2023-06-14T00:17:27;100062.59;;;21.60;96.25
47524;BME280;33253;42.144;25.884;2023-06-14T00:19:57;100068.16;;;21.35;97.79
47524;BME280;33253;42.144;25.884;2023-06-14T00:22:23;100061.13;;;21.39;97.72
47524;BME280;33253;42.144;25.884;2023-06-14T00:24:51;100013.28;;;21.16;97.36
47524;BME280;33253;42.144;25.884;2023-06-14T00:27:17;100045.34;;;21.40;97.86
47524;BME280;33253;42.144;25.884;2023-06-14T00:29:42;100059.31;;;21.42;97.95
47524;BME280;33253;42.144;25.884;2023-06-14T00:32:08;100007.31;;;21.07;98.39
47524;BME280;33253;42.144;25.884;2023-06-14T00:34:34;100059.41;;;21.36;98.72
47524;BME280;33253;42.144;25.884;2023-06-14T00:36:59;100009.06;;;21.06;98.53
47524;BME280;33253;42.144;25.884;2023-06-14T00:39:25;100056.72;;;21.39;98.67
47524;BME280;33253;42.144;25.884;2023-06-14T00:41:50;100055.00;;;21.40;98.38
47524;BME280;33253;42.144;25.884;2023-06-14T00:44:16;100059.41;;;21.34;98.58
47524;BME280;33253;42.144;25.884;2023-06-14T00:46:42;100048.16;;;21.26;99.15
47524;BME280;33253;42.144;25.884;2023-06-14T00:49:09;100056.84;;;21.31;99.28
47524;BME280;33253;42.144;25.884;2023-06-14T00:51:35;100049.91;;;21.27;99.87
47524;BME280;33253;42.144;25.884;2023-06-14T00:54:02;100040.34;;;21.22;99.89
47524;BME280;33253;42.144;25.884;2023-06-14T00:56:28;100047.25;;;21.29;100.00
47524;BME280;33253;42.144;25.884;2023-06-14T00:58:55;99996.97;;;20.94;100.00
47524;BME280;33253;42.144;25.884;2023-06-14T01:01:21;100009.09;;;21.03;100.00
47524;BME280;33253;42.144;25.884;2023-06-14T01:03:47;99978.00;;;20.74;100.00
47524;BME280;33253;42.144;25.884;2023-06-14T01:06:23;100046.44;;;21.24;100.00
47524;BME280;33253;42.144;25.884;2023-06-14T01:09:18;100051.63;;;21.30;100.00
47524;BME280;33253;42.144;25.884;2023-06-14T01:11:56;100053.31;;;21.34;99.93
47524;BME280;33253;42.144;25.884;2023-06-14T01:14:25;100049.84;;;21.30;100.00
47524;BME280;33253;42.144;25.884;2023-06-14T01:16:52;100032.50;;;21.20;100.00
47524;BME280;33253;42.144;25.884;2023-06-14T01:19:19;99992.19;;;20.56;100.00
47524;BME280;33253;42.144;25.884;2023-06-14T01:21:48;100044.19;;;20.94;100.00
47524;BME280;33253;42.144;25.884;2023-06-14T01:24:16;100030.28;;;20.89;100.00
47524;BME280;33253;42.144;25.884;2023-06-14T01:26:45;99987.69;;;20.65;99.97
47524;BME280;33253;42.144;25.884;2023-06-14T01:29:13;100047.63;;;21.01;100.00
47524;BME280;33253;42.144;25.884;2023-06-14T01:31:42;100036.38;;;20.91;100.00
47524;BME280;33253;42.144;25.884;2023-06-14T01:34:08;99999.03;;;20.66;100.00
47524;BME280;33253;42.144;25.884;2023-06-14T01:36:36;100019.88;;;20.81;99.71
47524;BME280;33253;42.144;25.884;2023-06-14T01:39:04;99983.47;;;20.52;100.00
47524;BME280;33253;42.144;25.884;2023-06-14T01:41:31;100054.81;;;20.87;100.00
47524;BME280;33253;42.144;25.884;2023-06-14T01:43:57;100054.81;;;20.87;100.00
47524;BME280;33253;42.144;25.884;2023-06-14T01:46:24;100005.31;;;20.54;100.00
47524;BME280;33253;42.144;25.884;2023-06-14T01:48:50;100047.97;;;20.70;100.00
47524;BME280;33253;42.144;25.884;2023-06-14T01:51:16;99989.84;;;20.29;100.00
47524;BME280;33253;42.144;25.884;2023-06-14T01:53:41;99985.44;;;20.33;100.00
47524;BME280;33253;42.144;25.884;2023-06-14T01:56:07;99987.16;;;20.35;100.00
47524;BME280;33253;42.144;25.884;2023-06-14T01:58:32;100046.25;;;20.67;100.00
47524;BME280;33253;42.144;25.884;2023-06-14T02:00:58;100054.94;;;20.69;100.00
47524;BME280;33253;42.144;25.884;2023-06-14T02:03:26;100051.47;;;20.74;100.00
47524;BME280;33253;42.144;25.884;2023-06-14T02:05:51;100055.06;;;20.60;100.00
47524;BME280;33253;42.144;25.884;2023-06-14T02:08:17;100026.34;;;20.49;100.00
47524;BME280;33253;42.144;25.884;2023-06-14T02:10:42;99995.06;;;20.34;100.00
47524;BME280;33253;42.144;25.884;2023-06-14T02:13:08;100042.75;;;20.67;100.00
47524;BME280;33253;42.144;25.884;2023-06-14T02:15:34;100051.44;;;20.75;100.00
47524;BME280;33253;42.144;25.884;2023-06-14T02:18:04;100039.25;;;20.68;100.00
47524;BME280;33253;42.144;25.884;2023-06-14T02:20:30;100060.19;;;20.74;100.00
47524;BME280;33253;42.144;25.884;2023-06-14T02:22:56;100044.50;;;20.68;100.00
47524;BME280;33253;42.144;25.884;2023-06-14T02:25:22;100048.88;;;20.67;100.00
47524;BME280;33253;42.144;25.884;2023-06-14T02:27:47;100050.66;;;20.64;100.00
47524;BME280;33253;42.144;25.884;2023-06-14T02:30:13;100060.41;;;20.49;100.00
47524;BME280;33253;42.144;25.884;2023-06-14T02:32:38;100058.75;;;20.44;100.00
47524;BME280;33253;42.144;25.884;2023-06-14T02:35:06;100057.84;;;20.45;100.00
47524;BME280;33253;42.144;25.884;2023-06-14T02:37:32;100052.63;;;20.43;100.00
47524;BME280;33253;42.144;25.884;2023-06-14T02:39:58;100057.16;;;20.29;100.00
47524;BME280;33253;42.144;25.884;2023-06-14T02:42:23;100021.59;;;20.01;100.00
47524;BME280;33253;42.144;25.884;2023-06-14T02:44:49;100041.56;;;20.13;100.00
47524;BME280;33253;42.144;25.884;2023-06-14T02:47:17;100032.00;;;20.08;100.00
47524;BME280;33253;42.144;25.884;2023-06-14T02:49:46;100050.28;;;20.15;100.00
47524;BME280;33253;42.144;25.884;2023-06-14T02:52:12;100048.53;;;20.14;100.00
47524;BME280;33253;42.144;25.884;2023-06-14T02:54:37;100059.81;;;20.24;100.00
47524;BME280;33253;42.144;25.884;2023-06-14T02:57:03;100066.78;;;20.25;100.00
47524;BME280;33253;42.144;25.884;2023-06-14T02:59:28;100053.81;;;20.10;100.00
47524;BME280;33253;42.144;25.884;2023-06-14T03:01:54;100059.06;;;20.10;100.00
47524;BME280;33253;42.144;25.884;2023-06-14T03:04:19;100039.97;;;19.95;100.00
47524;BME280;33253;42.144;25.884;2023-06-14T03:06:45;100067.81;;;20.10;100.00
47524;BME280;33253;42.144;25.884;2023-06-14T03:09:15;100071.31;;;20.06;100.00
47524;BME280;33253;42.144;25.884;2023-06-14T03:11:41;100050.44;;;19.94;100.00
47524;BME280;33253;42.144;25.884;2023-06-14T03:14:07;100071.31;;;20.09;100.00
47524;BME280;33253;42.144;25.884;2023-06-14T03:16:33;100006.97;;;19.69;100.00
47524;BME280;33253;42.144;25.884;2023-06-14T03:18:59;100024.38;;;19.83;100.00
47524;BME280;33253;42.144;25.884;2023-06-14T03:21:24;100067.03;;;19.96;100.00
47524;BME280;33253;42.144;25.884;2023-06-14T03:23:51;100055.75;;;19.89;100.00
47524;BME280;33253;42.144;25.884;2023-06-14T03:26:18;100053.13;;;19.86;100.00
47524;BME280;33253;42.144;25.884;2023-06-14T03:28:46;100067.97;;;19.88;100.00
47524;BME280;33253;42.144;25.884;2023-06-14T03:31:12;100072.28;;;19.96;100.00
47524;BME280;33253;42.144;25.884;2023-06-14T03:33:39;100076.63;;;19.98;100.00
47524;BME280;33253;42.144;25.884;2023-06-14T03:36:04;100075.75;;;19.99;100.00
47524;BME280;33253;42.144;25.884;2023-06-14T03:38:30;100084.53;;;19.95;100.00
47524;BME280;33253;42.144;25.884;2023-06-14T03:40:56;100079.28;;;19.95;100.00
47524;BME280;33253;42.144;25.884;2023-06-14T03:43:21;100030.63;;;19.60;100.00
47524;BME280;33253;42.144;25.884;2023-06-14T03:45:48;100079.31;;;19.87;100.00
47524;BME280;33253;42.144;25.884;2023-06-14T03:48:13;100078.47;;;19.81;100.00
47524;BME280;33253;42.144;25.884;2023-06-14T03:50:39;100090.69;;;19.88;100.00
47524;BME280;33253;42.144;25.884;2023-06-14T03:53:05;100093.34;;;19.77;100.00
47524;BME280;33253;42.144;25.884;2023-06-14T03:55:31;100097.72;;;19.77;100.00
47524;BME280;33253;42.144;25.884;2023-06-14T03:57:57;100082.03;;;19.72;100.00
47524;BME280;33253;42.144;25.884;2023-06-14T04:00:22;100090.75;;;19.71;100.00
47524;BME280;33253;42.144;25.884;2023-06-14T04:02:48;100109.91;;;19.85;100.00
47524;BME280;33253;42.144;25.884;2023-06-14T04:05:14;100027.19;;;19.47;100.00
47524;BME280;33253;42.144;25.884;2023-06-14T04:07:40;100110.78;;;19.86;100.00
47524;BME280;33253;42.144;25.884;2023-06-14T04:10:12;100112.53;;;19.81;100.00
47524;BME280;33253;42.144;25.884;2023-06-14T04:12:38;100090.72;;;19.80;100.00
47524;BME280;33253;42.144;25.884;2023-06-14T04:15:04;100121.16;;;19.98;100.00
47524;BME280;33253;42.144;25.884;2023-06-14T04:17:31;100115.03;;;20.04;100.00
47524;BME280;33253;42.144;25.884;2023-06-14T04:19:58;100099.38;;;19.96;100.00
47524;BME280;33253;42.144;25.884;2023-06-14T04:22:25;100061.94;;;19.72;100.00
47524;BME280;33253;42.144;25.884;2023-06-14T04:24:54;100122.84;;;20.07;100.00
47524;BME280;33253;42.144;25.884;2023-06-14T04:27:22;100124.56;;;20.11;100.00
47524;BME280;33253;42.144;25.884;2023-06-14T04:29:54;100123.69;;;20.14;100.00
47524;BME280;33253;42.144;25.884;2023-06-14T04:32:28;100117.56;;;20.09;100.00
47524;BME280;33253;42.144;25.884;2023-06-14T04:34:58;100139.38;;;20.20;100.00
47524;BME280;33253;42.144;25.884;2023-06-14T04:37:24;100140.22;;;20.17;100.00
47524;BME280;33253;42.144;25.884;2023-06-14T04:39:49;100137.72;;;20.05;100.00
47524;BME280;33253;42.144;25.884;2023-06-14T04:42:17;100139.41;;;20.12;100.00
47524;BME280;33253;42.144;25.884;2023-06-14T04:44:46;100131.50;;;20.17;100.00
47524;BME280;33253;42.144;25.884;2023-06-14T04:47:13;100146.28;;;20.29;100.00
47524;BME280;33253;42.144;25.884;2023-06-14T04:49:39;100145.34;;;20.33;100.00
47524;BME280;33253;42.144;25.884;2023-06-14T04:52:06;100108.84;;;20.13;100.00
47524;BME280;33253;42.144;25.884;2023-06-14T04:54:32;100152.22;;;20.48;100.00
47524;BME280;33253;42.144;25.884;2023-06-14T04:56:59;100150.38;;;20.59;100.00
47524;BME280;33253;42.144;25.884;2023-06-14T04:59:24;100154.69;;;20.66;100.00
47524;BME280;33253;42.144;25.884;2023-06-14T05:01:50;100154.69;;;20.71;100.00
47524;BME280;33253;42.144;25.884;2023-06-14T05:04:17;100159.84;;;20.76;100.00
47524;BME280;33253;42.144;25.884;2023-06-14T05:06:43;100162.47;;;20.79;100.00
47524;BME280;33253;42.144;25.884;2023-06-14T05:09:15;100158.09;;;20.78;100.00
47524;BME280;33253;42.144;25.884;2023-06-14T05:11:43;100162.44;;;20.80;100.00
47524;BME280;33253;42.144;25.884;2023-06-14T05:14:10;100164.16;;;20.83;100.00
47524;BME280;33253;42.144;25.884;2023-06-14T05:16:36;100094.50;;;20.51;100.00
47524;BME280;33253;42.144;25.884;2023-06-14T05:19:02;100153.50;;;20.97;100.00
47524;BME280;33253;42.144;25.884;2023-06-14T05:21:29;100158.59;;;21.11;100.00
47524;BME280;33253;42.144;25.884;2023-06-14T05:23:55;100178.47;;;21.32;100.00
47524;BME280;33253;42.144;25.884;2023-06-14T05:26:21;100179.22;;;21.45;99.70
47524;BME280;33253;42.144;25.884;2023-06-14T05:28:48;100180.81;;;21.55;97.28
47524;BME280;33253;42.144;25.884;2023-06-14T05:31:15;100181.56;;;21.68;96.25
47524;BME280;33253;42.144;25.884;2023-06-14T05:33:40;100184.16;;;21.71;96.65
47524;BME280;33253;42.144;25.884;2023-06-14T05:36:05;100184.22;;;21.67;96.61
47524;BME280;33253;42.144;25.884;2023-06-14T05:38:31;100199.94;;;21.68;96.10
47524;BME280;33253;42.144;25.884;2023-06-14T05:40:56;100186.88;;;21.65;96.14
47524;BME280;33253;42.144;25.884;2023-06-14T05:43:22;100198.97;;;21.78;96.83
47524;BME280;33253;42.144;25.884;2023-06-14T05:45:47;100201.44;;;21.88;96.22
47524;BME280;33253;42.144;25.884;2023-06-14T05:48:13;100202.16;;;21.99;95.24
47524;BME280;33253;42.144;25.884;2023-06-14T05:50:38;100199.41;;;22.08;93.97
47524;BME280;33253;42.144;25.884;2023-06-14T05:53:04;100148.94;;;21.85;93.04
47524;BME280;33253;42.144;25.884;2023-06-14T05:55:29;100200.09;;;22.20;91.52
47524;BME280;33253;42.144;25.884;2023-06-14T05:57:54;100207.19;;;22.13;91.58
47524;BME280;33253;42.144;25.884;2023-06-14T06:00:20;100203.53;;;22.25;90.94
47524;BME280;33253;42.144;25.884;2023-06-14T06:02:46;100218.22;;;22.40;86.97
47524;BME280;33253;42.144;25.884;2023-06-14T06:05:13;100216.28;;;22.51;84.92
47524;BME280;33253;42.144;25.884;2023-06-14T06:07:38;100203.22;;;22.46;83.93
47524;BME280;33253;42.144;25.884;2023-06-14T06:10:07;100203.03;;;22.57;83.05
47524;BME280;33253;42.144;25.884;2023-06-14T06:12:33;100191.59;;;22.60;82.13
47524;BME280;33253;42.144;25.884;2023-06-14T06:14:59;100221.06;;;22.79;81.06
47524;BME280;33253;42.144;25.884;2023-06-14T06:17:25;100225.66;;;22.69;78.81
47524;BME280;33253;42.144;25.884;2023-06-14T06:19:50;100226.44;;;22.74;78.91
47524;BME280;33253;42.144;25.884;2023-06-14T06:22:16;100229.75;;;22.86;79.69
47524;BME280;33253;42.144;25.884;2023-06-14T06:24:42;100233.03;;;22.99;79.87
47524;BME280;33253;42.144;25.884;2023-06-14T06:27:07;100226.78;;;23.04;77.80
47524;BME280;33253;42.144;25.884;2023-06-14T06:29:37;100213.72;;;22.98;78.76
47524;BME280;33253;42.144;25.884;2023-06-14T06:32:03;100224.84;;;23.13;76.59
47524;BME280;33253;42.144;25.884;2023-06-14T06:34:29;100182.22;;;22.93;78.28
47524;BME280;33253;42.144;25.884;2023-06-14T06:36:54;100230.19;;;23.09;76.01
47524;BME280;33253;42.144;25.884;2023-06-14T06:39:20;100230.13;;;23.16;77.38
47524;BME280;33253;42.144;25.884;2023-06-14T06:41:46;100230.00;;;23.22;74.01
47524;BME280;33253;42.144;25.884;2023-06-14T06:44:11;100225.44;;;23.30;72.67
47524;BME280;33253;42.144;25.884;2023-06-14T06:46:39;100219.44;;;23.23;73.44
47524;BME280;33253;42.144;25.884;2023-06-14T06:49:06;100228.19;;;23.25;73.91
47524;BME280;33253;42.144;25.884;2023-06-14T06:51:32;100222.09;;;23.22;73.13
47524;BME280;33253;42.144;25.884;2023-06-14T06:53:57;100227.06;;;23.37;73.33
47524;BME280;33253;42.144;25.884;2023-06-14T06:56:23;100217.78;;;23.18;73.53
47524;BME280;33253;42.144;25.884;2023-06-14T06:58:50;100208.91;;;23.23;74.88
47524;BME280;33253;42.144;25.884;2023-06-14T07:01:16;100155.63;;;23.07;75.72
47524;BME280;33253;42.144;25.884;2023-06-14T07:03:41;100220.69;;;23.48;74.60
47524;BME280;33253;42.144;25.884;2023-06-14T07:06:07;100214.59;;;23.46;75.32
47524;BME280;33253;42.144;25.884;2023-06-14T07:08:32;100205.28;;;23.29;74.71
47524;BME280;33253;42.144;25.884;2023-06-14T07:10:57;100192.44;;;23.10;73.62
47524;BME280;33253;42.144;25.884;2023-06-14T07:13:23;100214.31;;;23.16;72.87
47524;BME280;33253;42.144;25.884;2023-06-14T07:15:48;100216.03;;;23.15;73.94
47524;BME280;33253;42.144;25.884;2023-06-14T07:18:14;100216.06;;;23.17;73.72
47524;BME280;33253;42.144;25.884;2023-06-14T07:20:39;100219.22;;;23.33;74.39
47524;BME280;33253;42.144;25.884;2023-06-14T07:23:05;100173.03;;;23.16;74.60
47524;BME280;33253;42.144;25.884;2023-06-14T07:25:31;100181.66;;;23.24;72.34
47524;BME280;33253;42.144;25.884;2023-06-14T07:27:56;100216.09;;;23.59;73.51
47524;BME280;33253;42.144;25.884;2023-06-14T07:30:22;100147.38;;;23.26;72.24
47524;BME280;33253;42.144;25.884;2023-06-14T07:32:51;100210.03;;;23.55;72.29
47524;BME280;33253;42.144;25.884;2023-06-14T07:35:17;100204.56;;;23.63;72.71
47524;BME280;33253;42.144;25.884;2023-06-14T07:37:43;100201.63;;;23.77;73.20
47524;BME280;33253;42.144;25.884;2023-06-14T07:40:09;100203.09;;;23.92;72.15
47524;BME280;33253;42.144;25.884;2023-06-14T07:42:35;100143.25;;;23.55;72.52
47524;BME280;33253;42.144;25.884;2023-06-14T07:45:02;100202.88;;;24.03;75.41
47524;BME280;33253;42.144;25.884;2023-06-14T07:47:28;100200.09;;;24.09;71.33
47524;BME280;33253;42.144;25.884;2023-06-14T07:49:53;100141.91;;;23.78;71.04
47524;BME280;33253;42.144;25.884;2023-06-14T07:52:19;100183.16;;;24.18;70.16
47524;BME280;33253;42.144;25.884;2023-06-14T07:54:45;100168.16;;;24.20;70.45
47524;BME280;33253;42.144;25.884;2023-06-14T07:57:10;100150.56;;;24.20;71.14
47524;BME280;33253;42.144;25.884;2023-06-14T07:59:36;100197.94;;;24.61;70.48
47524;BME280;33253;42.144;25.884;2023-06-14T08:02:01;100159.47;;;24.51;70.58
47524;BME280;33253;42.144;25.884;2023-06-14T08:04:26;100189.81;;;24.70;70.48
47524;BME280;33253;42.144;25.884;2023-06-14T08:06:52;100194.03;;;24.78;66.40
47524;BME280;33253;42.144;25.884;2023-06-14T08:09:18;100197.31;;;24.86;65.42
47524;BME280;33253;42.144;25.884;2023-06-14T08:11:43;100196.72;;;24.75;65.11
47524;BME280;33253;42.144;25.884;2023-06-14T08:14:08;100188.00;;;24.73;67.25
47524;BME280;33253;42.144;25.884;2023-06-14T08:16:34;100190.16;;;24.90;68.41
47524;BME280;33253;42.144;25.884;2023-06-14T08:18:59;100196.63;;;25.11;67.85
47524;BME280;33253;42.144;25.884;2023-06-14T08:21:25;100193.84;;;25.17;63.46
47524;BME280;33253;42.144;25.884;2023-06-14T08:23:52;100201.75;;;25.18;65.60
47524;BME280;33253;42.144;25.884;2023-06-14T08:26:18;100132.47;;;24.76;67.56
47524;BME280;33253;42.144;25.884;2023-06-14T08:28:43;100195.34;;;24.94;68.81
47524;BME280;33253;42.144;25.884;2023-06-14T08:31:09;100202.34;;;24.95;68.14
47524;BME280;33253;42.144;25.884;2023-06-14T08:33:35;100201.41;;;24.98;66.92
47524;BME280;33253;42.144;25.884;2023-06-14T08:36:00;100194.38;;;24.97;65.44
47524;BME280;33253;42.144;25.884;2023-06-14T08:38:25;100192.69;;;24.94;63.93
47524;BME280;33253;42.144;25.884;2023-06-14T08:40:52;100192.59;;;24.99;68.13
47524;BME280;33253;42.144;25.884;2023-06-14T08:43:18;100207.03;;;25.17;66.13
47524;BME280;33253;42.144;25.884;2023-06-14T08:45:46;100168.69;;;25.03;63.57
47524;BME280;33253;42.144;25.884;2023-06-14T08:48:12;100206.63;;;25.32;64.22
47524;BME280;33253;42.144;25.884;2023-06-14T08:50:42;100201.97;;;25.42;64.62
47524;BME280;33253;42.144;25.884;2023-06-14T08:53:11;100148.16;;;25.13;65.57
47524;BME280;33253;42.144;25.884;2023-06-14T08:55:45;100202.13;;;25.36;65.53
47524;BME280;33253;42.144;25.884;2023-06-14T08:58:11;100146.91;;;24.95;64.09
47524;BME280;33253;42.144;25.884;2023-06-14T09:00:40;100195.91;;;25.39;63.25
47524;BME280;33253;42.144;25.884;2023-06-14T09:03:08;100188.72;;;25.44;65.04
47524;BME280;33253;42.144;25.884;2023-06-14T09:05:38;100206.38;;;25.72;64.67
47524;BME280;33253;42.144;25.884;2023-06-14T09:08:04;100199.88;;;25.83;63.88
47524;BME280;33253;42.144;25.884;2023-06-14T09:10:31;100203.13;;;25.92;61.75
47524;BME280;33253;42.144;25.884;2023-06-14T09:13:03;100103.41;;;25.09;59.27
47524;BME280;33253;42.144;25.884;2023-06-14T09:15:32;100206.38;;;25.42;59.66
47524;BME280;33253;42.144;25.884;2023-06-14T09:17:58;100202.19;;;25.64;59.29
47524;BME280;33253;42.144;25.884;2023-06-14T09:20:24;100217.78;;;25.74;58.35
47524;BME280;33253;42.144;25.884;2023-06-14T09:22:49;100183.50;;;25.71;57.60
47524;BME280;33253;42.144;25.884;2023-06-14T09:25:15;100193.44;;;25.92;58.67
47524;BME280;33253;42.144;25.884;2023-06-14T09:27:41;100118.47;;;25.35;60.18
47524;BME280;33253;42.144;25.884;2023-06-14T09:30:09;100151.94;;;25.66;57.25
47524;BME280;33253;42.144;25.884;2023-06-14T09:32:39;100209.63;;;26.11;56.44
47524;BME280;33253;42.144;25.884;2023-06-14T09:35:07;100202.09;;;26.26;57.17
47524;BME280;33253;42.144;25.884;2023-06-14T09:37:33;100198.59;;;26.52;54.42
47524;BME280;33253;42.144;25.884;2023-06-14T09:39:59;100188.78;;;26.54;54.52
47524;BME280;33253;42.144;25.884;2023-06-14T09:42:25;100196.75;;;26.54;54.79
47524;BME280;33253;42.144;25.884;2023-06-14T09:44:52;100191.91;;;26.67;54.92
47524;BME280;33253;42.144;25.884;2023-06-14T09:47:19;100190.53;;;26.82;55.62
47524;BME280;33253;42.144;25.884;2023-06-14T09:49:44;100187.97;;;26.80;53.56
47524;BME280;33253;42.144;25.884;2023-06-14T09:52:12;100191.03;;;26.67;56.33
47524;BME280;33253;42.144;25.884;2023-06-14T09:54:41;100185.72;;;26.67;55.47
47524;BME280;33253;42.144;25.884;2023-06-14T09:57:12;100187.00;;;26.82;55.70
47524;BME280;33253;42.144;25.884;2023-06-14T09:59:41;100182.72;;;27.04;54.66
47524;BME280;33253;42.144;25.884;2023-06-14T10:02:11;100177.56;;;27.00;54.72
47524;BME280;33253;42.144;25.884;2023-06-14T10:04:44;100178.19;;;27.06;54.32
47524;BME280;33253;42.144;25.884;2023-06-14T10:07:14;100151.59;;;27.09;54.30
47524;BME280;33253;42.144;25.884;2023-06-14T10:09:42;100173.22;;;27.46;53.75
47524;BME280;33253;42.144;25.884;2023-06-14T10:12:14;100127.00;;;27.29;53.21
47524;BME280;33253;42.144;25.884;2023-06-14T10:14:47;100161.56;;;27.50;56.12
47524;BME280;33253;42.144;25.884;2023-06-14T10:17:20;100148.31;;;27.74;53.64
47524;BME280;33253;42.144;25.884;2023-06-14T10:19:51;100123.25;;;27.81;56.61
47524;BME280;33253;42.144;25.884;2023-06-14T10:22:29;100166.22;;;28.13;53.52
47524;BME280;33253;42.144;25.884;2023-06-14T10:24:55;100168.00;;;27.90;52.71
47524;BME280;33253;42.144;25.884;2023-06-14T10:27:21;100162.75;;;28.11;54.96
47524;BME280;33253;42.144;25.884;2023-06-14T10:32:18;100162.81;;;28.32;54.76
47524;BME280;33253;42.144;25.884;2023-06-14T10:34:44;100163.16;;;28.22;52.98
47524;BME280;33253;42.144;25.884;2023-06-14T10:37:13;100161.41;;;28.44;52.75
47524;BME280;33253;42.144;25.884;2023-06-14T10:42:05;100110.66;;;28.08;52.30
47524;BME280;33253;42.144;25.884;2023-06-14T10:44:32;100145.78;;;28.15;53.52
47524;BME280;33253;42.144;25.884;2023-06-14T10:46:59;100147.72;;;28.12;53.30
47524;BME280;33253;42.144;25.884;2023-06-14T10:49:43;100140.06;;;28.02;53.39
47524;BME280;33253;42.144;25.884;2023-06-14T10:52:15;100090.63;;;27.33;55.50
47524;BME280;33253;42.144;25.884;2023-06-14T10:55:03;100142.00;;;27.99;53.76
47524;BME280;33253;42.144;25.884;2023-06-14T10:57:30;100132.03;;;28.05;53.40
47524;BME280;33253;42.144;25.884;2023-06-14T11:00:03;100127.09;;;27.74;53.47
47524;BME280;33253;42.144;25.884;2023-06-14T11:05:15;100100.06;;;27.64;53.46
47524;BME280;33253;42.144;25.884;2023-06-14T11:10:39;100122.38;;;28.66;52.99
47524;BME280;33253;42.144;25.884;2023-06-14T11:13:07;100122.75;;;28.98;50.73
47524;BME280;33253;42.144;25.884;2023-06-14T11:15:34;100092.19;;;29.09;50.41
47524;BME280;33253;42.144;25.884;2023-06-14T11:18:01;100130.81;;;29.36;50.08
47524;BME280;33253;42.144;25.884;2023-06-14T11:20:29;100130.22;;;29.49;50.57
47524;BME280;33253;42.144;25.884;2023-06-14T11:22:54;100134.13;;;29.78;49.74
47524;BME280;33253;42.144;25.884;2023-06-14T11:25:20;100124.91;;;30.05;50.11
47524;BME280;33253;42.144;25.884;2023-06-14T11:27:46;100125.69;;;30.24;48.44
47524;BME280;33253;42.144;25.884;2023-06-14T11:30:13;100128.97;;;30.29;50.11
47524;BME280;33253;42.144;25.884;2023-06-14T11:32:38;100116.13;;;30.38;47.28
47524;BME280;33253;42.144;25.884;2023-06-14T11:35:05;100079.25;;;30.12;47.32
47524;BME280;33253;42.144;25.884;2023-06-14T11:37:31;100109.34;;;30.49;47.79
47524;BME280;33253;42.144;25.884;2023-06-14T11:40:00;100107.75;;;30.63;48.29
47524;BME280;33253;42.144;25.884;2023-06-14T11:42:26;100115.72;;;30.80;48.09
47524;BME280;33253;42.144;25.884;2023-06-14T11:44:53;100104.16;;;30.97;45.12
47524;BME280;33253;42.144;25.884;2023-06-14T11:47:18;100106.91;;;30.96;45.36
47524;BME280;33253;42.144;25.884;2023-06-14T11:49:44;100100.75;;;30.78;46.37
47524;BME280;33253;42.144;25.884;2023-06-14T11:52:10;100103.84;;;30.53;46.64
47524;BME280;33253;42.144;25.884;2023-06-14T11:54:36;100105.88;;;30.47;46.78
47524;BME280;33253;42.144;25.884;2023-06-14T11:57:03;100096.09;;;30.13;45.42
47524;BME280;33253;42.144;25.884;2023-06-14T11:59:29;100096.66;;;30.02;46.11
47524;BME280;33253;42.144;25.884;2023-06-14T12:01:56;100092.81;;;30.08;45.07
47524;BME280;33253;42.144;25.884;2023-06-14T12:04:26;100087.78;;;30.37;46.65
47524;BME280;33253;42.144;25.884;2023-06-14T12:06:52;100099.94;;;30.42;44.04
47524;BME280;33253;42.144;25.884;2023-06-14T12:09:18;100059.44;;;30.00;44.40
47524;BME280;33253;42.144;25.884;2023-06-14T12:11:45;100043.72;;;30.13;45.51
47524;BME280;33253;42.144;25.884;2023-06-14T12:14:11;100043.34;;;30.04;44.82
47524;BME280;33253;42.144;25.884;2023-06-14T12:16:39;100074.69;;;30.14;45.11
47524;BME280;33253;42.144;25.884;2023-06-14T12:19:16;100090.53;;;30.35;44.68
47524;BME280;33253;42.144;25.884;2023-06-14T12:21:42;100085.19;;;30.35;44.84
47524;BME280;33253;42.144;25.884;2023-06-14T12:24:09;100041.56;;;29.85;44.83
47524;BME280;33253;42.144;25.884;2023-06-14T12:26:40;100085.59;;;30.27;45.20
47524;BME280;33253;42.144;25.884;2023-06-14T12:29:06;100083.06;;;30.42;44.60
47524;BME280;33253;42.144;25.884;2023-06-14T12:31:32;100025.22;;;30.28;44.42
47524;BME280;33253;42.144;25.884;2023-06-14T12:33:58;100076.84;;;30.76;44.03
47524;BME280;33253;42.144;25.884;2023-06-14T12:36:24;100069.44;;;30.65;43.15
47524;BME280;33253;42.144;25.884;2023-06-14T12:38:51;100018.47;;;30.56;41.90
47524;BME280;33253;42.144;25.884;2023-06-14T12:41:19;100069.94;;;31.06;42.76
47524;BME280;33253;42.144;25.884;2023-06-14T12:43:47;100058.09;;;31.27;40.95
47524;BME280;33253;42.144;25.884;2023-06-14T12:46:13;100063.28;;;31.14;42.79